Etusivu
METAR-TAF:

METAR-TAF

Lentoasemat :

Tottori, Japani

Leveyspiiri: 35-32N, Pituuspiiri: 134-10E, korkeus merenpinnasta: 15 m

Tämänhetkinen sää

Tämä raportti tehtiin 25 minuuttia sitten, kello 06.00 UTC
Tuuli 23 kn lännestä/luoteesta
Lämpötila 12°C
Kosteus 71%
Ilmanpaine 1017 hPa
Näkyvyys: 8000 m
Muutamia pilviä 2000 ft:n korkeudessa
Hajanaisia pilviä 3500 ft:n korkeudessa
Hajonneita pilviä 4500 ft:n korkeudessa
heikkoja vesikuuroja

METAR: RJOR 190600Z 29023KT 8000 -SHRA FEW020 SCT035 BKN045 12/07 Q1017

Aika: 15:25 (06:25 UTC)


TAF: puuttuu

Säähavainnot ja -ennusteet yli 4000 lentoasemalta (METAR- ja TAF-raportit).

Käytössä olevat sääasemat on merkitty karttaan keltaisilla ja punaisilla pisteillä.

Aseta hiiri pisteen päälle nähdäksesi sääaseman nimen.

Klikkaa sitten nähdäksesi säähavainnot ja -ennusteet.

Kartan vaihtaminen: klikkaa mustalla rastilla varustettuja vihreitä pisteitä, niin voit zoomata sisään; viivalla varustettua vihreää pistettä, niin voit zoomata ulos tai vihreitä nuolia, niin pääset viereisille kartoille.


METAR-TAF: